sensor_id;sensor_type;location;lat;lon;timestamp;temperature;humidity
39779;DHT22;25454;49.878;8.618;2022-12-29T00:00:23;10.30;99.90
39779;DHT22;25454;49.878;8.618;2022-12-29T00:05:23;10.30;99.90
39779;DHT22;25454;49.878;8.618;2022-12-29T00:10:24;10.30;99.90
39779;DHT22;25454;49.878;8.618;2022-12-29T00:15:24;10.30;99.90
39779;DHT22;25454;49.878;8.618;2022-12-29T00:20:38;10.40;99.90
39779;DHT22;25454;49.878;8.618;2022-12-29T00:25:57;10.40;99.90
39779;DHT22;25454;49.878;8.618;2022-12-29T00:31:16;10.40;99.90
39779;DHT22;25454;49.878;8.618;2022-12-29T00:36:39;10.40;99.90
39779;DHT22;25454;49.878;8.618;2022-12-29T00:41:40;10.40;99.90
39779;DHT22;25454;49.878;8.618;2022-12-29T00:47:00;10.50;99.90
39779;DHT22;25454;49.878;8.618;2022-12-29T00:52:06;10.40;99.90
39779;DHT22;25454;49.878;8.618;2022-12-29T00:57:09;10.30;99.90
39779;DHT22;25454;49.878;8.618;2022-12-29T01:02:10;10.30;99.90
39779;DHT22;25454;49.878;8.618;2022-12-29T01:07:11;10.30;99.90
39779;DHT22;25454;49.878;8.618;2022-12-29T01:12:11;10.50;99.90
39779;DHT22;25454;49.878;8.618;2022-12-29T01:17:12;10.60;99.90
39779;DHT22;25454;49.878;8.618;2022-12-29T01:22:13;10.70;99.90
39779;DHT22;25454;49.878;8.618;2022-12-29T01:27:13;10.80;99.90
39779;DHT22;25454;49.878;8.618;2022-12-29T01:32:14;10.80;99.90
39779;DHT22;25454;49.878;8.618;2022-12-29T01:37:14;10.80;99.90
39779;DHT22;25454;49.878;8.618;2022-12-29T01:42:23;10.90;99.90
39779;DHT22;25454;49.878;8.618;2022-12-29T01:47:31;10.90;99.90
39779;DHT22;25454;49.878;8.618;2022-12-29T01:52:35;10.90;99.90
39779;DHT22;25454;49.878;8.618;2022-12-29T01:57:40;10.90;99.90
39779;DHT22;25454;49.878;8.618;2022-12-29T02:02:50;11.00;99.90
39779;DHT22;25454;49.878;8.618;2022-12-29T02:07:52;11.00;99.90
39779;DHT22;25454;49.878;8.618;2022-12-29T02:12:53;11.00;99.90
39779;DHT22;25454;49.878;8.618;2022-12-29T02:33:55;11.20;99.90
39779;DHT22;25454;49.878;8.618;2022-12-29T02:49:45;11.20;99.90
39779;DHT22;25454;49.878;8.618;2022-12-29T02:54:49;11.00;99.90
39779;DHT22;25454;49.878;8.618;2022-12-29T02:59:56;10.90;99.90
39779;DHT22;25454;49.878;8.618;2022-12-29T03:05:22;11.00;99.90
39779;DHT22;25454;49.878;8.618;2022-12-29T03:15:48;11.10;99.90
39779;DHT22;25454;49.878;8.618;2022-12-29T03:21:29;11.10;99.90
39779;DHT22;25454;49.878;8.618;2022-12-29T03:26:53;11.30;99.90
39779;DHT22;25454;49.878;8.618;2022-12-29T03:31:55;11.30;99.90
39779;DHT22;25454;49.878;8.618;2022-12-29T03:37:10;11.30;99.90
39779;DHT22;25454;49.878;8.618;2022-12-29T03:42:14;11.10;99.90
39779;DHT22;25454;49.878;8.618;2022-12-29T03:47:15;10.90;99.90
39779;DHT22;25454;49.878;8.618;2022-12-29T03:52:15;10.90;99.90
39779;DHT22;25454;49.878;8.618;2022-12-29T03:57:16;10.90;99.90
39779;DHT22;25454;49.878;8.618;2022-12-29T04:02:17;10.90;99.90
39779;DHT22;25454;49.878;8.618;2022-12-29T04:07:17;11.00;99.90
39779;DHT22;25454;49.878;8.618;2022-12-29T04:12:18;11.00;99.90
39779;DHT22;25454;49.878;8.618;2022-12-29T04:17:18;11.00;99.90
39779;DHT22;25454;49.878;8.618;2022-12-29T04:22:19;11.00;99.90
39779;DHT22;25454;49.878;8.618;2022-12-29T04:27:20;11.00;99.90
39779;DHT22;25454;49.878;8.618;2022-12-29T04:32:20;11.10;99.90
39779;DHT22;25454;49.878;8.618;2022-12-29T04:37:21;11.20;99.90
39779;DHT22;25454;49.878;8.618;2022-12-29T04:42:21;11.20;99.90
39779;DHT22;25454;49.878;8.618;2022-12-29T04:47:22;11.20;99.90
39779;DHT22;25454;49.878;8.618;2022-12-29T04:52:23;11.20;99.90
39779;DHT22;25454;49.878;8.618;2022-12-29T04:57:23;11.20;99.90
39779;DHT22;25454;49.878;8.618;2022-12-29T05:02:24;11.30;99.90
39779;DHT22;25454;49.878;8.618;2022-12-29T05:07:24;11.30;99.90
39779;DHT22;25454;49.878;8.618;2022-12-29T05:12:25;11.30;99.90
39779;DHT22;25454;49.878;8.618;2022-12-29T05:17:26;11.30;99.90
39779;DHT22;25454;49.878;8.618;2022-12-29T05:22:26;11.30;99.90
39779;DHT22;25454;49.878;8.618;2022-12-29T05:27:27;11.30;99.90
39779;DHT22;25454;49.878;8.618;2022-12-29T05:32:28;11.30;99.90
39779;DHT22;25454;49.878;8.618;2022-12-29T05:37:28;11.40;99.90
39779;DHT22;25454;49.878;8.618;2022-12-29T05:42:29;11.40;99.90
39779;DHT22;25454;49.878;8.618;2022-12-29T05:47:29;11.50;99.90
39779;DHT22;25454;49.878;8.618;2022-12-29T05:52:30;11.50;99.90
39779;DHT22;25454;49.878;8.618;2022-12-29T05:57:30;11.50;99.90
39779;DHT22;25454;49.878;8.618;2022-12-29T06:02:31;11.60;99.90
39779;DHT22;25454;49.878;8.618;2022-12-29T06:07:31;11.60;99.90
39779;DHT22;25454;49.878;8.618;2022-12-29T06:12:32;11.60;99.90
39779;DHT22;25454;49.878;8.618;2022-12-29T06:17:32;11.60;99.90
39779;DHT22;25454;49.878;8.618;2022-12-29T06:22:33;11.70;99.90
39779;DHT22;25454;49.878;8.618;2022-12-29T06:27:34;11.70;99.90
39779;DHT22;25454;49.878;8.618;2022-12-29T06:32:35;11.70;99.90
39779;DHT22;25454;49.878;8.618;2022-12-29T06:37:35;11.70;99.90
39779;DHT22;25454;49.878;8.618;2022-12-29T06:42:36;11.60;99.90
39779;DHT22;25454;49.878;8.618;2022-12-29T06:47:36;11.60;99.90
39779;DHT22;25454;49.878;8.618;2022-12-29T06:52:37;11.60;99.90
39779;DHT22;25454;49.878;8.618;2022-12-29T06:57:38;11.60;99.90
39779;DHT22;25454;49.878;8.618;2022-12-29T07:02:39;11.70;99.90
39779;DHT22;25454;49.878;8.618;2022-12-29T07:07:40;11.70;99.90
39779;DHT22;25454;49.878;8.618;2022-12-29T07:12:40;11.70;99.90
39779;DHT22;25454;49.878;8.618;2022-12-29T07:17:41;11.80;99.90
39779;DHT22;25454;49.878;8.618;2022-12-29T07:22:44;11.90;99.90
39779;DHT22;25454;49.878;8.618;2022-12-29T07:27:45;11.90;99.90
39779;DHT22;25454;49.878;8.618;2022-12-29T07:32:46;11.80;99.90
39779;DHT22;25454;49.878;8.618;2022-12-29T07:37:47;11.80;99.90
39779;DHT22;25454;49.878;8.618;2022-12-29T07:42:47;11.90;99.90
39779;DHT22;25454;49.878;8.618;2022-12-29T07:47:49;11.90;99.90
39779;DHT22;25454;49.878;8.618;2022-12-29T07:52:49;11.90;99.90
39779;DHT22;25454;49.878;8.618;2022-12-29T07:57:53;11.90;99.90
39779;DHT22;25454;49.878;8.618;2022-12-29T08:02:53;11.90;99.90
39779;DHT22;25454;49.878;8.618;2022-12-29T08:07:55;11.80;99.90
39779;DHT22;25454;49.878;8.618;2022-12-29T08:12:55;11.70;99.90
39779;DHT22;25454;49.878;8.618;2022-12-29T08:17:56;11.60;99.90
39779;DHT22;25454;49.878;8.618;2022-12-29T08:22:57;11.60;99.90
39779;DHT22;25454;49.878;8.618;2022-12-29T08:27:57;11.60;99.90
39779;DHT22;25454;49.878;8.618;2022-12-29T08:32:58;11.60;99.90
39779;DHT22;25454;49.878;8.618;2022-12-29T08:37:58;11.70;99.90
39779;DHT22;25454;49.878;8.618;2022-12-29T08:42:59;11.70;99.90
39779;DHT22;25454;49.878;8.618;2022-12-29T08:47:59;11.70;99.90
39779;DHT22;25454;49.878;8.618;2022-12-29T08:53:00;11.70;99.90
39779;DHT22;25454;49.878;8.618;2022-12-29T08:58:01;11.80;99.90
39779;DHT22;25454;49.878;8.618;2022-12-29T09:03:01;11.80;99.90
39779;DHT22;25454;49.878;8.618;2022-12-29T09:08:02;11.90;99.90
39779;DHT22;25454;49.878;8.618;2022-12-29T09:13:03;12.10;99.90
39779;DHT22;25454;49.878;8.618;2022-12-29T09:18:04;12.30;99.90
39779;DHT22;25454;49.878;8.618;2022-12-29T09:23:04;12.40;99.90
39779;DHT22;25454;49.878;8.618;2022-12-29T09:28:06;12.40;99.90
39779;DHT22;25454;49.878;8.618;2022-12-29T09:33:08;12.50;99.90
39779;DHT22;25454;49.878;8.618;2022-12-29T09:38:08;12.60;99.90
39779;DHT22;25454;49.878;8.618;2022-12-29T09:48:25;12.70;99.90
39779;DHT22;25454;49.878;8.618;2022-12-29T09:53:37;12.80;99.90
39779;DHT22;25454;49.878;8.618;2022-12-29T09:58:43;12.80;99.90
39779;DHT22;25454;49.878;8.618;2022-12-29T10:03:50;12.80;99.90
39779;DHT22;25454;49.878;8.618;2022-12-29T10:09:34;13.10;99.90
39779;DHT22;25454;49.878;8.618;2022-12-29T10:25:20;13.50;99.90
39779;DHT22;25454;49.878;8.618;2022-12-29T10:30:22;13.20;99.90
39779;DHT22;25454;49.878;8.618;2022-12-29T10:35:26;12.70;99.90
39779;DHT22;25454;49.878;8.618;2022-12-29T10:40:40;11.90;99.90
39779;DHT22;25454;49.878;8.618;2022-12-29T10:45:42;11.20;99.90
39779;DHT22;25454;49.878;8.618;2022-12-29T10:50:42;11.00;99.90
39779;DHT22;25454;49.878;8.618;2022-12-29T10:55:43;10.90;99.90
39779;DHT22;25454;49.878;8.618;2022-12-29T11:00:50;11.00;99.90
39779;DHT22;25454;49.878;8.618;2022-12-29T11:11:35;10.90;99.90
39779;DHT22;25454;49.878;8.618;2022-12-29T11:16:36;10.90;99.90
39779;DHT22;25454;49.878;8.618;2022-12-29T11:21:38;10.90;99.90
39779;DHT22;25454;49.878;8.618;2022-12-29T11:26:44;11.20;99.90
39779;DHT22;25454;49.878;8.618;2022-12-29T11:31:53;11.40;99.90
39779;DHT22;25454;49.878;8.618;2022-12-29T11:37:10;11.60;99.90
39779;DHT22;25454;49.878;8.618;2022-12-29T11:42:16;11.60;99.90
39779;DHT22;25454;49.878;8.618;2022-12-29T11:47:45;11.70;99.90
39779;DHT22;25454;49.878;8.618;2022-12-29T11:52:48;11.80;99.90
39779;DHT22;25454;49.878;8.618;2022-12-29T11:57:50;11.90;99.90
39779;DHT22;25454;49.878;8.618;2022-12-29T12:02:57;12.00;99.90
39779;DHT22;25454;49.878;8.618;2022-12-29T12:13:35;11.80;99.90
39779;DHT22;25454;49.878;8.618;2022-12-29T12:18:55;11.70;99.90
39779;DHT22;25454;49.878;8.618;2022-12-29T12:29:22;11.50;99.90
39779;DHT22;25454;49.878;8.618;2022-12-29T12:39:38;12.10;99.90
39779;DHT22;25454;49.878;8.618;2022-12-29T12:44:54;12.10;99.90
39779;DHT22;25454;49.878;8.618;2022-12-29T13:00:59;12.20;99.90
39779;DHT22;25454;49.878;8.618;2022-12-29T13:38:32;12.40;99.90
39779;DHT22;25454;49.878;8.618;2022-12-29T13:43:38;12.30;99.90
39779;DHT22;25454;49.878;8.618;2022-12-29T13:59:27;12.10;99.90
39779;DHT22;25454;49.878;8.618;2022-12-29T14:04:33;12.10;99.90
39779;DHT22;25454;49.878;8.618;2022-12-29T14:09:52;12.00;99.90
39779;DHT22;25454;49.878;8.618;2022-12-29T14:14:53;12.00;99.90
39779;DHT22;25454;49.878;8.618;2022-12-29T14:19:54;12.00;99.90
39779;DHT22;25454;49.878;8.618;2022-12-29T14:24:54;12.00;99.90
39779;DHT22;25454;49.878;8.618;2022-12-29T14:29:55;12.00;99.90
39779;DHT22;25454;49.878;8.618;2022-12-29T14:35:00;12.00;99.90
39779;DHT22;25454;49.878;8.618;2022-12-29T14:40:25;12.00;99.90
39779;DHT22;25454;49.878;8.618;2022-12-29T14:45:28;12.00;99.90
39779;DHT22;25454;49.878;8.618;2022-12-29T14:50:40;11.90;99.90
39779;DHT22;25454;49.878;8.618;2022-12-29T14:55:44;11.90;99.90
39779;DHT22;25454;49.878;8.618;2022-12-29T15:00:50;11.90;99.90
39779;DHT22;25454;49.878;8.618;2022-12-29T15:06:03;11.90;99.90
39779;DHT22;25454;49.878;8.618;2022-12-29T15:11:17;11.80;99.90
39779;DHT22;25454;49.878;8.618;2022-12-29T15:16:29;11.70;99.90
39779;DHT22;25454;49.878;8.618;2022-12-29T15:21:34;11.60;99.90
39779;DHT22;25454;49.878;8.618;2022-12-29T15:26:41;11.30;99.90
39779;DHT22;25454;49.878;8.618;2022-12-29T15:31:55;11.20;99.90
39779;DHT22;25454;49.878;8.618;2022-12-29T15:36:56;11.10;99.90
39779;DHT22;25454;49.878;8.618;2022-12-29T15:42:03;11.00;99.90
39779;DHT22;25454;49.878;8.618;2022-12-29T15:47:19;10.80;99.90
39779;DHT22;25454;49.878;8.618;2022-12-29T15:52:22;10.60;99.90
39779;DHT22;25454;49.878;8.618;2022-12-29T15:57:29;10.50;99.90
39779;DHT22;25454;49.878;8.618;2022-12-29T16:02:30;10.50;99.90
39779;DHT22;25454;49.878;8.618;2022-12-29T16:07:32;10.50;99.90
39779;DHT22;25454;49.878;8.618;2022-12-29T16:12:35;10.40;99.90
39779;DHT22;25454;49.878;8.618;2022-12-29T16:17:47;10.30;99.90
39779;DHT22;25454;49.878;8.618;2022-12-29T16:22:52;10.10;99.90
39779;DHT22;25454;49.878;8.618;2022-12-29T16:27:54;10.00;99.90
39779;DHT22;25454;49.878;8.618;2022-12-29T16:32:59;9.80;99.90
39779;DHT22;25454;49.878;8.618;2022-12-29T16:38:21;9.80;99.90
39779;DHT22;25454;49.878;8.618;2022-12-29T16:48:47;9.80;99.90
39779;DHT22;25454;49.878;8.618;2022-12-29T16:53:52;9.90;99.90
39779;DHT22;25454;49.878;8.618;2022-12-29T17:04:23;9.90;99.90
39779;DHT22;25454;49.878;8.618;2022-12-29T17:09:28;9.90;99.90
39779;DHT22;25454;49.878;8.618;2022-12-29T17:19:54;9.80;99.90
39779;DHT22;25454;49.878;8.618;2022-12-29T17:24:57;9.80;99.90
39779;DHT22;25454;49.878;8.618;2022-12-29T17:30:02;9.80;99.90
39779;DHT22;25454;49.878;8.618;2022-12-29T17:35:04;9.70;99.90
39779;DHT22;25454;49.878;8.618;2022-12-29T17:40:07;9.80;99.90
39779;DHT22;25454;49.878;8.618;2022-12-29T17:45:19;9.70;99.90
39779;DHT22;25454;49.878;8.618;2022-12-29T17:50:24;9.70;99.90
39779;DHT22;25454;49.878;8.618;2022-12-29T17:55:25;9.70;99.90
39779;DHT22;25454;49.878;8.618;2022-12-29T18:00:28;9.70;99.90
39779;DHT22;25454;49.878;8.618;2022-12-29T18:05:30;9.70;99.90
39779;DHT22;25454;49.878;8.618;2022-12-29T18:10:33;9.80;99.90
39779;DHT22;25454;49.878;8.618;2022-12-29T18:15:35;9.70;99.90
39779;DHT22;25454;49.878;8.618;2022-12-29T18:20:36;9.70;99.90
39779;DHT22;25454;49.878;8.618;2022-12-29T18:25:43;9.70;99.90
39779;DHT22;25454;49.878;8.618;2022-12-29T18:30:45;9.70;99.90
39779;DHT22;25454;49.878;8.618;2022-12-29T18:36:03;9.70;99.90
39779;DHT22;25454;49.878;8.618;2022-12-29T18:41:04;9.70;99.90
39779;DHT22;25454;49.878;8.618;2022-12-29T18:46:05;9.70;99.90
39779;DHT22;25454;49.878;8.618;2022-12-29T18:51:06;9.60;99.90
39779;DHT22;25454;49.878;8.618;2022-12-29T18:56:13;9.60;99.90
39779;DHT22;25454;49.878;8.618;2022-12-29T19:01:24;9.50;99.90
39779;DHT22;25454;49.878;8.618;2022-12-29T19:06:25;9.50;99.90
39779;DHT22;25454;49.878;8.618;2022-12-29T19:11:25;9.50;99.90
39779;DHT22;25454;49.878;8.618;2022-12-29T19:16:26;9.50;99.90
39779;DHT22;25454;49.878;8.618;2022-12-29T19:21:26;9.50;99.90
39779;DHT22;25454;49.878;8.618;2022-12-29T19:26:32;9.50;99.90
39779;DHT22;25454;49.878;8.618;2022-12-29T19:31:34;9.40;99.90
39779;DHT22;25454;49.878;8.618;2022-12-29T19:36:36;9.30;99.90
39779;DHT22;25454;49.878;8.618;2022-12-29T19:41:37;9.30;99.90
39779;DHT22;25454;49.878;8.618;2022-12-29T19:46:37;9.30;99.90
39779;DHT22;25454;49.878;8.618;2022-12-29T19:51:38;9.40;99.90
39779;DHT22;25454;49.878;8.618;2022-12-29T19:56:38;9.40;99.90
39779;DHT22;25454;49.878;8.618;2022-12-29T20:01:42;9.40;99.90
39779;DHT22;25454;49.878;8.618;2022-12-29T20:06:42;9.50;99.90
39779;DHT22;25454;49.878;8.618;2022-12-29T20:11:43;9.40;99.90
39779;DHT22;25454;49.878;8.618;2022-12-29T20:16:43;9.40;99.90
39779;DHT22;25454;49.878;8.618;2022-12-29T20:21:44;9.40;99.90
39779;DHT22;25454;49.878;8.618;2022-12-29T20:26:44;9.40;99.90
39779;DHT22;25454;49.878;8.618;2022-12-29T20:31:46;9.50;99.90
39779;DHT22;25454;49.878;8.618;2022-12-29T20:36:47;9.50;99.90
39779;DHT22;25454;49.878;8.618;2022-12-29T20:41:48;9.50;99.90
39779;DHT22;25454;49.878;8.618;2022-12-29T20:46:49;9.60;99.90
39779;DHT22;25454;49.878;8.618;2022-12-29T20:51:49;9.50;99.90
39779;DHT22;25454;49.878;8.618;2022-12-29T20:56:50;9.50;99.90
39779;DHT22;25454;49.878;8.618;2022-12-29T21:01:51;9.50;99.90
39779;DHT22;25454;49.878;8.618;2022-12-29T21:06:52;9.50;99.90
39779;DHT22;25454;49.878;8.618;2022-12-29T21:11:53;9.50;99.90
39779;DHT22;25454;49.878;8.618;2022-12-29T21:16:53;9.40;99.90
39779;DHT22;25454;49.878;8.618;2022-12-29T21:21:54;9.40;99.90
39779;DHT22;25454;49.878;8.618;2022-12-29T21:26:54;9.40;99.90
39779;DHT22;25454;49.878;8.618;2022-12-29T21:31:55;9.40;99.90
39779;DHT22;25454;49.878;8.618;2022-12-29T21:36:55;9.40;99.90
39779;DHT22;25454;49.878;8.618;2022-12-29T21:41:56;9.30;99.90
39779;DHT22;25454;49.878;8.618;2022-12-29T21:46:59;9.30;99.90
39779;DHT22;25454;49.878;8.618;2022-12-29T21:51:59;9.10;99.90
39779;DHT22;25454;49.878;8.618;2022-12-29T21:57:01;9.00;99.90
39779;DHT22;25454;49.878;8.618;2022-12-29T22:02:04;8.90;99.90
39779;DHT22;25454;49.878;8.618;2022-12-29T22:07:23;8.90;99.90
39779;DHT22;25454;49.878;8.618;2022-12-29T22:12:43;8.80;99.90
39779;DHT22;25454;49.878;8.618;2022-12-29T22:18:03;8.80;99.90
39779;DHT22;25454;49.878;8.618;2022-12-29T22:23:04;8.70;99.90
39779;DHT22;25454;49.878;8.618;2022-12-29T22:28:04;8.70;99.90
39779;DHT22;25454;49.878;8.618;2022-12-29T22:33:05;8.70;99.90
39779;DHT22;25454;49.878;8.618;2022-12-29T22:38:06;8.70;99.90
39779;DHT22;25454;49.878;8.618;2022-12-29T22:43:07;8.80;99.90
39779;DHT22;25454;49.878;8.618;2022-12-29T22:48:07;8.90;99.90
39779;DHT22;25454;49.878;8.618;2022-12-29T22:53:08;8.80;99.90
39779;DHT22;25454;49.878;8.618;2022-12-29T22:58:08;8.80;99.90
39779;DHT22;25454;49.878;8.618;2022-12-29T23:03:09;8.80;99.90
39779;DHT22;25454;49.878;8.618;2022-12-29T23:08:10;8.60;99.90
39779;DHT22;25454;49.878;8.618;2022-12-29T23:13:10;8.50;99.90
39779;DHT22;25454;49.878;8.618;2022-12-29T23:18:11;8.40;99.90
39779;DHT22;25454;49.878;8.618;2022-12-29T23:23:11;8.40;99.90
39779;DHT22;25454;49.878;8.618;2022-12-29T23:28:12;8.30;99.90
39779;DHT22;25454;49.878;8.618;2022-12-29T23:33:12;8.20;99.90
39779;DHT22;25454;49.878;8.618;2022-12-29T23:38:13;8.10;99.90
39779;DHT22;25454;49.878;8.618;2022-12-29T23:43:13;8.00;99.90
39779;DHT22;25454;49.878;8.618;2022-12-29T23:48:14;8.00;99.90
39779;DHT22;25454;49.878;8.618;2022-12-29T23:53:14;8.00;99.90
39779;DHT22;25454;49.878;8.618;2022-12-29T23:58:15;7.90;99.90
